Time;durP1;ratioP1;P1;durP2;ratioP2;P2;SDS_P1;SDS_P2;PMS_P1;PMS_P2;Temp;Humidity;BMP_temperature;BMP_pressure;BME280_temperature;BME280_humidity;BME280_pressure;Samples;Min_cycle;Max_cycle;Signal;HPM_P1;HPM_P2
2022/09/07 00:00:12;;;;;;;13.40;10.57;;;;;;;17.54;96.33;101090.41;4970422;28;20054;-84
2022/09/07 00:02:38;;;;;;;13.43;9.88;;;;;;;17.38;94.47;101094.22;4969551;28;20122;-86
2022/09/07 00:05:04;;;;;;;14.50;10.98;;;;;;;17.25;95.52;101096.13;4969801;28;20113;-88
2022/09/07 00:07:29;;;;;;;14.63;10.57;;;;;;;17.19;95.79;101091.22;4970656;28;20515;-84
2022/09/07 00:09:54;;;;;;;13.48;10.70;;;;;;;17.07;95.95;101076.00;4953643;28;20023;-85
2022/09/07 00:12:20;;;;;;;15.88;11.45;;;;;;;16.99;95.84;101070.34;4964885;28;20058;-86
2022/09/07 00:14:45;;;;;;;14.57;11.25;;;;;;;16.95;96.82;101068.84;4950197;29;20035;-85
2022/09/07 00:17:10;;;;;;;13.93;10.98;;;;;;;16.91;96.78;101058.31;4950744;29;20028;-86
2022/09/07 00:19:35;;;;;;;12.55;10.25;;;;;;;16.78;96.76;101041.38;4950062;29;20023;-84
2022/09/07 00:22:01;;;;;;;12.45;10.18;;;;;;;16.75;97.23;101056.88;4955789;28;20110;-85
2022/09/07 00:24:26;;;;;;;12.48;10.70;;;;;;;16.74;97.46;101057.84;4969652;28;20089;-85
2022/09/07 00:26:54;;;;;;;10.85;9.75;;;;;;;16.65;97.83;101057.50;4969987;28;20405;-85
2022/09/07 00:29:19;;;;;;;10.38;9.30;;;;;;;16.69;98.11;101064.38;4957669;28;20303;-84
2022/09/07 00:31:45;;;;;;;11.30;8.88;;;;;;;16.65;98.08;101054.81;4938736;28;20023;-85
2022/09/07 00:34:10;;;;;;;9.68;7.95;;;;;;;16.63;97.30;101061.28;4970140;28;20188;-85
2022/09/07 00:36:35;;;;;;;8.95;7.30;;;;;;;16.59;96.82;101070.53;4975933;28;20038;-86
2022/09/07 00:39:01;;;;;;;9.48;7.05;;;;;;;16.54;95.68;101070.00;4970629;28;20113;-84
2022/09/07 00:41:26;;;;;;;9.15;6.72;;;;;;;16.49;96.34;101074.84;4971999;28;20437;-86
2022/09/07 00:43:54;;;;;;;9.45;6.68;;;;;;;16.51;97.01;101072.91;4970147;28;20037;-86
2022/09/07 00:46:19;;;;;;;8.98;6.20;;;;;;;16.46;95.77;101075.06;4972507;28;20105;-85
2022/09/07 00:49:11;;;;;;;10.85;6.90;;;;;;;16.48;95.85;101057.88;4971406;28;20463;-86
2022/09/07 00:51:44;;;;;;;9.85;5.72;;;;;;;16.32;95.42;101058.13;4961238;28;20041;-85
2022/09/07 00:54:16;;;;;;;7.75;6.53;;;;;;;16.26;95.49;101053.19;4969822;28;20042;-85
2022/09/07 00:56:43;;;;;;;8.00;5.82;;;;;;;16.29;95.98;101042.22;4968401;28;20444;-86
2022/09/07 00:59:11;;;;;;;6.85;5.93;;;;;;;16.29;95.43;101036.84;4970018;28;20050;-86
2022/09/07 01:01:37;;;;;;;8.07;5.88;;;;;;;16.34;94.93;101018.56;4968671;28;20106;-87
2022/09/07 01:04:04;;;;;;;9.48;5.80;;;;;;;16.38;94.71;101008.47;4969615;28;20058;-85
2022/09/07 01:06:34;;;;;;;6.75;5.53;;;;;;;16.30;93.94;101010.84;4968263;28;20325;-85
2022/09/07 01:09:08;;;;;;;7.30;5.45;;;;;;;16.34;94.99;101018.56;4969825;28;20023;-85
2022/09/07 01:11:35;;;;;;;6.45;5.30;;;;;;;16.29;93.94;101020.72;4966487;28;20034;-85
2022/09/07 01:14:03;;;;;;;8.52;5.70;;;;;;;16.36;94.46;101035.44;4969355;28;20022;-86
2022/09/07 01:16:54;;;;;;;6.63;4.95;;;;;;;16.31;92.98;101036.75;4986715;28;20496;-86
2022/09/07 01:19:25;;;;;;;5.88;5.20;;;;;;;16.32;93.91;101042.00;4973213;28;20058;-85
2022/09/07 01:22:02;;;;;;;7.93;5.07;;;;;;;16.34;93.44;101048.09;4970796;28;20338;-86
2022/09/07 01:24:39;;;;;;;6.28;5.25;;;;;;;16.34;93.40;101037.38;4965382;28;20035;-86
2022/09/07 01:27:29;;;;;;;6.35;5.40;;;;;;;16.36;93.33;101043.50;4973102;28;20027;-86
2022/09/07 01:30:04;;;;;;;6.18;4.93;;;;;;;16.46;92.04;101046.38;4972125;28;20073;-85
2022/09/07 01:32:42;;;;;;;6.20;5.07;;;;;;;16.55;92.07;101044.84;4971196;28;20058;-86
2022/09/07 01:35:14;;;;;;;7.47;5.57;;;;;;;16.56;91.92;101030.47;4972283;28;20057;-86
2022/09/07 01:37:55;;;;;;;5.72;4.85;;;;;;;16.58;91.72;101039.25;4970733;28;20080;-85
2022/09/07 01:40:36;;;;;;;5.75;5.18;;;;;;;16.54;91.64;101043.13;4971512;28;20106;-84
2022/09/07 01:43:09;;;;;;;7.32;5.20;;;;;;;16.63;92.87;101039.78;4987160;28;20035;-85
2022/09/07 01:45:38;;;;;;;5.68;5.18;;;;;;;16.73;91.93;101048.06;4972572;28;20045;-85
2022/09/07 01:48:07;;;;;;;6.35;5.00;;;;;;;16.70;90.75;101038.34;4972597;28;20034;-85
2022/09/07 01:50:39;;;;;;;6.40;5.00;;;;;;;16.70;90.58;101038.34;4970912;28;20031;-86
2022/09/07 01:53:22;;;;;;;7.72;5.28;;;;;;;16.70;90.29;101038.34;4953615;28;20130;-85
2022/09/07 01:56:03;;;;;;;6.88;5.15;;;;;;;16.73;89.84;101045.38;4951795;28;20039;-85
2022/09/07 01:58:34;;;;;;;7.00;5.57;;;;;;;16.75;90.14;101049.66;4953549;28;20027;-86
2022/09/07 02:01:08;;;;;;;7.97;5.25;;;;;;;16.79;90.63;101045.78;4959776;28;20521;-86
2022/09/07 02:03:57;;;;;;;6.97;5.97;;;;;;;16.78;89.61;101049.44;4972039;28;20022;-86
2022/09/07 02:06:32;;;;;;;7.45;5.68;;;;;;;16.72;90.07;101049.88;4972296;28;20178;-85
2022/09/07 02:09:02;;;;;;;7.90;6.05;;;;;;;16.72;90.18;101041.81;4972116;28;20030;-85
2022/09/07 02:11:37;;;;;;;6.65;5.15;;;;;;;16.77;89.87;101046.88;4970880;28;20027;-85
2022/09/07 02:14:10;;;;;;;6.97;5.60;;;;;;;16.75;90.46;101052.34;4972341;28;20081;-86
2022/09/07 02:16:43;;;;;;;8.77;5.70;;;;;;;16.76;89.92;101047.81;4972403;28;20061;-86
2022/09/07 02:19:15;;;;;;;6.68;5.45;;;;;;;16.71;89.75;101047.28;4972320;28;20018;-87
2022/09/07 02:21:45;;;;;;;7.18;5.57;;;;;;;16.72;90.00;101044.50;4969534;28;20133;-85
2022/09/07 02:24:17;;;;;;;8.05;5.78;;;;;;;16.70;90.66;101027.59;4971995;28;20027;-85
2022/09/07 02:26:46;;;;;;;6.82;5.90;;;;;;;16.67;90.39;101035.88;4971269;28;20027;-85
2022/09/07 02:29:12;;;;;;;7.07;6.03;;;;;;;16.66;91.09;101031.50;4971930;28;20023;-85
2022/09/07 02:31:38;;;;;;;6.22;5.63;;;;;;;16.69;90.53;101037.50;4970786;28;20071;-85
2022/09/07 02:34:03;;;;;;;7.35;5.60;;;;;;;16.73;90.86;101029.25;4971630;28;20113;-86
2022/09/07 02:36:34;;;;;;;8.35;6.22;;;;;;;16.73;89.95;101031.94;4971799;28;20389;-85
2022/09/07 02:38:59;;;;;;;7.93;5.93;;;;;;;16.79;89.77;101042.22;4966096;28;20042;-86
2022/09/07 02:41:32;;;;;;;6.75;5.85;;;;;;;16.90;89.26;101032.41;4964947;28;20384;-85
2022/09/07 02:44:00;;;;;;;6.57;5.40;;;;;;;16.95;89.38;101033.91;4972029;28;20031;-85
2022/09/07 02:46:44;;;;;;;7.05;6.35;;;;;;;17.05;88.47;101024.16;4970794;28;20182;-86
2022/09/07 02:49:37;;;;;;;7.22;6.35;;;;;;;17.10;88.45;101040.81;4972202;28;20067;-85
2022/09/07 02:52:10;;;;;;;7.72;6.32;;;;;;;17.18;87.82;101039.28;4970553;28;20062;-86
2022/09/07 02:54:55;;;;;;;8.52;6.90;;;;;;;17.25;88.53;101046.88;4972201;28;20034;-85
2022/09/07 02:57:48;;;;;;;7.90;6.22;;;;;;;17.34;88.15;101044.31;4971061;28;20027;-85
2022/09/07 03:00:24;;;;;;;11.00;7.03;;;;;;;17.32;88.30;101040.91;4970199;28;20508;-85
2022/09/07 03:03:14;;;;;;;7.82;6.75;;;;;;;17.43;88.87;101040.97;4971578;28;20035;-85
2022/09/07 03:06:03;;;;;;;7.93;6.45;;;;;;;17.45;86.81;101023.81;4972420;28;20035;-86
2022/09/07 03:08:47;;;;;;;10.95;7.32;;;;;;;17.54;87.83;101026.66;4984174;28;20046;-85
2022/09/07 03:11:13;;;;;;;8.63;6.80;;;;;;;17.44;87.26;101017.59;4992937;28;20026;-85
2022/09/07 03:13:38;;;;;;;9.10;6.45;;;;;;;17.36;87.09;101020.00;4993177;28;20027;-85
2022/09/07 03:16:04;;;;;;;8.35;7.10;;;;;;;17.40;88.70;101024.19;4991761;28;20025;-86
2022/09/07 03:18:29;;;;;;;8.20;6.70;;;;;;;17.46;88.28;101014.78;4978631;28;20034;-86
2022/09/07 03:20:55;;;;;;;7.55;6.63;;;;;;;17.44;87.34;101001.44;4978313;28;20023;-85
2022/09/07 03:23:20;;;;;;;11.60;7.75;;;;;;;17.37;87.62;101001.06;4974826;28;20046;-85
2022/09/07 03:25:49;;;;;;;8.18;6.70;;;;;;;17.32;87.63;101005.94;4975319;28;20023;-86
2022/09/07 03:28:15;;;;;;;10.55;7.40;;;;;;;17.29;88.84;101005.31;4974458;28;20035;-85
2022/09/07 03:30:45;;;;;;;10.13;7.32;;;;;;;17.29;89.52;101008.00;4983029;28;20038;-86
2022/09/07 03:33:11;;;;;;;7.82;6.50;;;;;;;17.31;88.25;101004.22;4993920;28;20086;-86
2022/09/07 03:35:37;;;;;;;10.60;7.55;;;;;;;17.29;88.53;101006.16;4993035;28;20094;-84
2022/09/07 03:38:02;;;;;;;8.15;7.20;;;;;;;17.34;88.83;101003.13;4992309;28;20034;-86
2022/09/07 03:40:27;;;;;;;9.95;7.40;;;;;;;17.31;88.84;101008.75;4990297;28;20035;-84
2022/09/07 03:42:53;;;;;;;8.07;7.25;;;;;;;17.28;88.92;101004.44;4975735;28;20034;-85
2022/09/07 03:45:18;;;;;;;12.40;7.65;;;;;;;17.28;89.17;101004.44;4970327;28;20114;-86
2022/09/07 03:47:44;;;;;;;8.35;7.38;;;;;;;17.26;89.31;101006.38;4970992;28;20023;-86
2022/09/07 03:50:09;;;;;;;10.10;7.22;;;;;;;17.27;88.59;101004.59;4969970;28;20073;-86
2022/09/07 03:52:35;;;;;;;8.50;7.60;;;;;;;17.26;90.08;101001.00;4969566;28;20485;-86
2022/09/07 03:55:00;;;;;;;9.32;7.85;;;;;;;17.32;90.43;101016.69;4956567;28;20028;-86
2022/09/07 03:57:26;;;;;;;10.23;7.78;;;;;;;17.33;89.00;101018.41;4951843;29;20031;-86
2022/09/07 03:59:51;;;;;;;8.02;7.22;;;;;;;17.32;89.03;101010.47;4955515;28;20035;-87
2022/09/07 04:02:17;;;;;;;9.18;7.30;;;;;;;17.31;89.30;101003.38;4972576;28;20061;-86
2022/09/07 04:04:44;;;;;;;8.52;7.40;;;;;;;17.29;89.98;100998.09;4971962;28;20130;-86
2022/09/07 04:07:10;;;;;;;9.25;7.35;;;;;;;17.36;88.78;100993.09;4972232;28;20030;-87
2022/09/07 04:09:35;;;;;;;8.48;6.88;;;;;;;17.31;88.66;100977.31;4971456;28;20089;-86
2022/09/07 04:12:01;;;;;;;9.27;7.15;;;;;;;17.36;89.40;100974.28;4972973;28;20085;-86
2022/09/07 04:14:26;;;;;;;11.02;7.53;;;;;;;17.38;89.37;100970.47;4972813;28;20027;-86
2022/09/07 04:16:52;;;;;;;8.05;7.18;;;;;;;17.33;88.93;100966.44;4955892;28;20353;-86
2022/09/07 04:19:17;;;;;;;9.55;8.05;;;;;;;17.33;89.64;100974.50;4974040;28;20035;-86
2022/09/07 04:21:45;;;;;;;9.70;8.23;;;;;;;17.33;89.97;100975.34;4973409;28;20031;-86
2022/09/07 04:24:10;;;;;;;8.70;7.78;;;;;;;17.38;90.18;100978.53;4972920;28;20491;-86
2022/09/07 04:26:36;;;;;;;9.10;7.43;;;;;;;17.41;90.12;100981.00;4973600;28;20034;-86
2022/09/07 04:29:02;;;;;;;9.27;7.97;;;;;;;17.45;90.05;100986.16;4972914;28;20054;-86
2022/09/07 04:31:28;;;;;;;11.55;7.90;;;;;;;17.40;89.43;100983.81;4953200;28;20034;-86
2022/09/07 04:33:54;;;;;;;10.40;8.95;;;;;;;17.42;89.98;100971.09;4970144;28;20038;-87
2022/09/07 04:36:20;;;;;;;12.70;8.18;;;;;;;17.41;89.57;100972.94;4970428;28;20121;-85
2022/09/07 04:38:46;;;;;;;12.13;9.52;;;;;;;17.46;90.08;100974.41;4970872;28;20023;-86
2022/09/07 04:41:14;;;;;;;10.50;8.63;;;;;;;17.48;90.53;100975.16;4969159;28;20027;-85
2022/09/07 04:43:40;;;;;;;9.85;8.60;;;;;;;17.40;88.94;100971.22;4970372;28;20027;-86
2022/09/07 04:46:07;;;;;;;11.52;9.10;;;;;;;17.42;89.05;100988.09;4970217;28;20089;-86
2022/09/07 04:48:33;;;;;;;11.35;9.45;;;;;;;17.42;89.77;100998.00;4951084;28;20057;-86
2022/09/07 04:51:09;;;;;;;10.77;9.38;;;;;;;17.43;90.51;100984.44;4970117;28;20031;-87
2022/09/07 04:53:36;;;;;;;11.70;9.80;;;;;;;17.43;91.17;100987.13;4973033;28;20034;-85
2022/09/07 04:56:02;;;;;;;14.30;10.50;;;;;;;17.42;89.98;100988.09;4973915;28;20090;-86
2022/09/07 04:58:28;;;;;;;11.70;10.13;;;;;;;17.38;89.58;100980.38;4956328;28;20066;-86
2022/09/07 05:00:53;;;;;;;12.55;10.20;;;;;;;17.32;89.73;100970.97;4972157;28;20556;-86
2022/09/07 05:03:19;;;;;;;12.82;9.68;;;;;;;17.20;90.17;100971.03;4973520;28;20031;-86
2022/09/07 05:05:44;;;;;;;12.65;10.73;;;;;;;17.14;91.05;100970.53;4973484;28;20034;-86
2022/09/07 05:08:12;;;;;;;13.88;11.00;;;;;;;17.08;90.92;100971.00;4973652;28;20027;-87
2022/09/07 05:10:37;;;;;;;12.68;10.98;;;;;;;17.03;91.02;100959.75;4972978;28;20423;-86
2022/09/07 05:13:03;;;;;;;14.32;11.15;;;;;;;17.00;91.07;100961.81;4962311;28;20035;-86
2022/09/07 05:15:29;;;;;;;14.75;11.52;;;;;;;16.99;91.62;100982.47;4954306;29;20909;-87
2022/09/07 05:17:55;;;;;;;13.80;11.38;;;;;;;16.98;91.97;100985.28;4954032;29;20055;-86
2022/09/07 05:20:21;;;;;;;14.88;12.18;;;;;;;16.95;92.11;100985.50;4967132;28;20023;-87
2022/09/07 05:22:46;;;;;;;15.23;11.30;;;;;;;16.96;92.49;100998.81;4973642;28;20046;-86
2022/09/07 05:25:12;;;;;;;12.82;11.45;;;;;;;17.01;92.97;101001.16;4973719;28;20099;-86
2022/09/07 05:27:37;;;;;;;13.98;11.57;;;;;;;17.04;92.96;100993.72;4973096;28;20489;-87
2022/09/07 05:30:03;;;;;;;14.90;12.40;;;;;;;17.12;93.16;100998.53;4971751;28;20047;-87
2022/09/07 05:32:28;;;;;;;15.32;12.85;;;;;;;17.20;91.83;100995.25;4973116;28;20031;-85
2022/09/07 05:34:53;;;;;;;15.85;12.13;;;;;;;17.24;91.43;100994.03;4973096;28;20034;-86
2022/09/07 05:37:19;;;;;;;15.23;12.27;;;;;;;17.32;91.70;100995.16;4972771;28;20073;-87
2022/09/07 05:39:44;;;;;;;15.15;12.75;;;;;;;17.37;91.38;100994.81;4971664;28;20373;-86
2022/09/07 05:42:09;;;;;;;16.38;12.98;;;;;;;17.41;90.96;100986.38;4972498;28;20049;-86
2022/09/07 05:44:35;;;;;;;15.52;12.25;;;;;;;17.44;90.18;100996.06;4973478;28;20026;-84
2022/09/07 05:47:01;;;;;;;15.05;11.52;;;;;;;17.45;89.04;100996.91;4973038;28;20617;-85
2022/09/07 05:49:26;;;;;;;13.10;11.65;;;;;;;17.42;89.13;101004.22;4971458;28;20115;-87
2022/09/07 05:51:51;;;;;;;12.90;10.57;;;;;;;17.40;89.58;101003.50;4972831;28;20031;-86
2022/09/07 05:54:17;;;;;;;15.10;12.27;;;;;;;17.35;89.39;100997.63;4973155;28;20041;-86
2022/09/07 05:56:42;;;;;;;13.70;11.90;;;;;;;17.36;90.04;101003.88;4971532;28;20093;-88
2022/09/07 05:59:07;;;;;;;14.45;11.95;;;;;;;17.34;90.13;101003.97;4971773;28;20082;-87
2022/09/07 06:01:34;;;;;;;17.65;13.43;;;;;;;17.39;90.36;101003.66;4971938;28;20031;-85
2022/09/07 06:03:59;;;;;;;17.27;14.43;;;;;;;17.35;90.12;101011.09;4972074;28;20567;-87
2022/09/07 06:06:25;;;;;;;19.30;15.15;;;;;;;17.38;90.08;101010.81;4972827;28;20027;-87
2022/09/07 06:08:52;;;;;;;21.30;17.85;;;;;;;17.33;90.63;101014.84;4972311;28;20082;-88
2022/09/07 06:11:20;;;;;;;25.27;17.88;;;;;;;17.28;91.43;101019.75;4973316;28;20019;-87
2022/09/07 06:13:46;;;;;;;26.67;19.83;;;;;;;17.31;91.35;101016.81;4955630;28;20070;-87
2022/09/07 06:16:12;;;;;;;24.52;19.85;;;;;;;17.30;90.94;101013.25;4972972;28;20027;-87
2022/09/07 06:18:40;;;;;;;22.13;17.25;;;;;;;17.37;91.55;101011.81;4972004;28;20483;-88
2022/09/07 06:21:14;;;;;;;23.27;18.33;;;;;;;17.33;90.08;101021.09;4973297;28;20030;-87
2022/09/07 06:23:41;;;;;;;25.48;20.58;;;;;;;17.26;91.47;101027.91;4972893;28;20019;-88
2022/09/07 06:26:07;;;;;;;25.63;19.85;;;;;;;17.29;90.76;101018.75;4972270;28;20085;-87
2022/09/07 06:28:36;;;;;;;25.02;18.38;;;;;;;17.36;90.42;101018.19;4972058;28;20102;-87
2022/09/07 06:31:04;;;;;;;28.92;21.05;;;;;;;17.51;90.86;101023.34;4972823;28;20069;-87
2022/09/07 06:33:30;;;;;;;27.45;19.60;;;;;;;17.60;89.51;101028.03;4975892;28;20114;-89
2022/09/07 06:35:56;;;;;;;26.02;20.40;;;;;;;17.58;89.28;101038.03;4975847;28;20129;-88
2022/09/07 06:38:21;;;;;;;28.85;20.88;;;;;;;17.46;89.49;101033.59;4972986;28;20039;-88
2022/09/07 06:40:47;;;;;;;30.65;22.52;;;;;;;17.41;90.10;101033.97;4973199;28;20027;-89
2022/09/07 06:43:12;;;;;;;26.50;22.30;;;;;;;17.41;90.43;101036.66;4973166;28;20378;-88
2022/09/07 06:45:37;;;;;;;30.73;22.02;;;;;;;17.53;90.57;101046.47;4974322;28;20070;-88
2022/09/07 06:48:02;;;;;;;30.15;22.67;;;;;;;17.60;90.38;101046.88;4983718;28;20038;-88
2022/09/07 06:50:28;;;;;;;32.22;23.08;;;;;;;17.74;89.86;101046.69;4974490;28;20290;-89
2022/09/07 06:52:53;;;;;;;30.90;22.80;;;;;;;17.95;89.12;101043.31;4972609;28;20050;-89
2022/09/07 06:55:19;;;;;;;32.95;23.08;;;;;;;18.19;87.82;101048.59;4974524;28;20117;-90
2022/09/07 06:57:44;;;;;;;29.95;22.60;;;;;;;18.40;86.90;101039.63;4976269;28;20374;-88
2022/09/07 07:00:10;;;;;;;32.38;24.17;;;;;;;18.52;86.37;101045.88;4958010;28;20291;-89
2022/09/07 07:02:35;;;;;;;29.58;21.70;;;;;;;18.55;85.95;101044.75;4954781;29;20038;-89
2022/09/07 07:05:00;;;;;;;28.15;22.65;;;;;;;18.35;85.40;101043.66;4955196;29;20019;-90
2022/09/07 07:07:26;;;;;;;26.42;23.10;;;;;;;18.16;85.82;101050.53;4955531;29;20055;-89
2022/09/07 07:09:51;;;;;;;27.23;21.67;;;;;;;18.19;86.65;101049.44;4963461;28;20668;-89
2022/09/07 07:12:16;;;;;;;30.20;23.63;;;;;;;18.43;86.07;101052.00;4955804;28;20098;-88
2022/09/07 07:14:41;;;;;;;29.85;22.40;;;;;;;18.53;84.94;101038.66;4969242;28;20039;-89
2022/09/07 07:17:07;;;;;;;27.67;23.15;;;;;;;18.67;84.85;101044.59;4974543;28;20112;-90
2022/09/07 07:19:32;;;;;;;28.52;22.70;;;;;;;18.84;84.45;101056.75;4989450;28;20027;-89
2022/09/07 07:21:57;;;;;;;27.45;22.52;;;;;;;18.75;83.46;101046.72;4995382;28;20030;-90
2022/09/07 07:24:23;;;;;;;26.63;21.38;;;;;;;18.63;84.08;101047.69;4994254;28;20090;-88
2022/09/07 07:26:48;;;;;;;26.92;21.98;;;;;;;18.90;84.08;101061.66;4995287;28;20026;-90
2022/09/07 07:29:13;;;;;;;24.25;21.65;;;;;;;19.21;82.17;101047.44;4992067;28;20054;-91
2022/09/07 07:31:39;;;;;;;22.98;19.75;;;;;;;19.39;80.25;101052.13;4993449;28;20030;-90
2022/09/07 07:34:04;;;;;;;27.85;21.20;;;;;;;19.23;81.53;101049.03;4975259;28;20106;-89
2022/09/07 07:36:29;;;;;;;25.02;19.80;;;;;;;19.32;81.01;101060.91;4969776;28;20038;-89
2022/09/07 07:38:55;;;;;;;24.10;20.70;;;;;;;19.51;81.65;101063.72;4996355;28;20038;-90
2022/09/07 07:41:24;;;;;;;24.70;20.90;;;;;;;20.37;79.46;101064.44;4982060;28;20309;-90
2022/09/07 07:43:55;;;;;;;24.45;19.50;;;;;;;20.87;76.30;101073.44;4981334;28;20102;-91
2022/09/07 07:46:22;;;;;;;33.65;20.10;;;;;;;20.82;75.12;101073.00;4975594;28;20027;-91
2022/09/07 07:48:47;;;;;;;23.08;19.25;;;;;;;20.71;74.92;101073.13;4983819;28;20026;-90
2022/09/07 07:51:13;;;;;;;22.38;19.98;;;;;;;20.45;75.64;101077.28;4999667;28;20457;-91
2022/09/07 07:53:40;;;;;;;26.17;21.48;;;;;;;20.46;77.90;101073.56;4984334;28;20029;-90
2022/09/07 07:56:08;;;;;;;23.42;20.20;;;;;;;21.31;75.26;101082.03;4982375;28;20527;-90
2022/09/07 07:58:34;;;;;;;23.52;19.08;;;;;;;22.06;70.60;101066.03;4974109;28;20065;-90
2022/09/07 08:01:02;;;;;;;21.70;19.38;;;;;;;22.08;68.77;101069.44;4988887;28;20043;-90
2022/09/07 08:03:28;;;;;;;20.83;18.27;;;;;;;22.46;69.01;101073.91;4990772;28;20038;-90
2022/09/07 08:05:54;;;;;;;20.27;17.42;;;;;;;23.22;65.72;101072.78;4974871;28;20095;-92
2022/09/07 08:08:21;;;;;;;19.42;16.65;;;;;;;23.57;63.48;101067.31;4971768;28;20034;-91
2022/09/07 08:10:47;;;;;;;18.65;16.60;;;;;;;23.57;62.65;101072.75;4974200;28;20031;-92
2022/09/07 08:13:13;;;;;;;20.58;17.02;;;;;;;23.81;62.08;101079.44;4979533;28;20547;-91
2022/09/07 08:15:43;;;;;;;20.77;17.27;;;;;;;23.86;61.61;101080.66;4995761;28;20027;-90
2022/09/07 08:18:09;;;;;;;18.85;16.83;;;;;;;24.01;60.61;101074.66;4978889;28;20035;-89
2022/09/07 08:20:34;;;;;;;19.48;16.67;;;;;;;24.17;60.66;101082.91;4972319;28;20030;-92
2022/09/07 08:22:59;;;;;;;19.70;16.40;;;;;;;24.50;59.96;101083.13;4974754;28;20035;-90
2022/09/07 08:25:25;;;;;;;17.60;15.40;;;;;;;24.97;57.62;101088.06;4981506;28;20146;-89
2022/09/07 08:27:50;;;;;;;17.90;15.95;;;;;;;25.48;56.46;101092.44;4996517;28;20121;-91
2022/09/07 08:30:15;;;;;;;17.17;15.30;;;;;;;25.55;55.85;101084.44;4979551;28;20035;-91
2022/09/07 08:32:40;;;;;;;17.17;15.18;;;;;;;25.67;55.65;101087.69;4980101;28;20082;-92
2022/09/07 08:35:06;;;;;;;18.90;16.90;;;;;;;26.29;55.46;101086.09;4979468;28;20122;-89
2022/09/07 08:37:32;;;;;;;20.55;18.35;;;;;;;27.19;53.45;101088.47;4979689;28;20078;-89
2022/09/07 08:39:57;;;;;;;19.25;14.63;;;;;;;27.70;49.74;101096.97;4984175;28;20056;-90
2022/09/07 08:43:00;;;;;;;16.73;14.73;;;;;;;27.82;51.86;101094.69;4963325;28;20031;-91
2022/09/07 08:45:33;;;;;;;15.52;13.93;;;;;;;27.80;49.18;101105.81;4958650;29;20054;-91
2022/09/07 08:47:59;;;;;;;15.60;13.55;;;;;;;27.14;49.54;101103.72;4966267;28;20033;-90
2022/09/07 08:50:35;;;;;;;16.15;12.98;;;;;;;26.56;50.72;101105.81;4978606;28;20058;-93
2022/09/07 08:53:12;;;;;;;13.75;12.35;;;;;;;26.70;51.98;101104.22;4984187;28;20031;-92
2022/09/07 08:55:42;;;;;;;17.25;15.35;;;;;;;26.44;49.89;101099.88;4984749;28;20070;-91
2022/09/07 08:58:16;;;;;;;14.60;12.60;;;;;;;26.18;50.85;101108.28;4979285;28;20038;-92
2022/09/07 09:00:42;;;;;;;14.68;12.18;;;;;;;26.58;50.45;101096.41;4979749;28;20027;-93
2022/09/07 09:03:20;;;;;;;13.88;11.93;;;;;;;27.36;49.62;101102.03;4977779;28;20097;-90
2022/09/07 09:06:02;;;;;;;13.25;11.75;;;;;;;28.26;47.51;101102.13;4984608;28;20030;-91
2022/09/07 09:09:09;;;;;;;15.20;11.40;;;;;;;28.96;46.55;101103.50;4982036;28;20073;-92
2022/09/07 09:12:05;;;;;;;13.32;11.75;;;;;;;29.78;44.82;101109.50;4963672;28;20042;-92
2022/09/07 09:14:42;;;;;;;12.80;9.88;;;;;;;30.13;41.59;101101.31;4979935;28;20038;-92
2022/09/07 09:17:13;;;;;;;11.27;9.45;;;;;;;30.26;39.89;101104.19;4979417;28;20133;-92
2022/09/07 09:19:52;;;;;;;11.52;9.35;;;;;;;31.03;40.92;101105.06;4959901;29;20027;-93
2022/09/07 09:22:20;;;;;;;9.82;8.70;;;;;;;31.72;37.39;101110.28;4959901;29;20110;-92
2022/09/07 09:25:04;;;;;;;9.77;8.88;;;;;;;31.97;35.81;101112.44;4959835;29;20026;-91
2022/09/07 09:27:30;;;;;;;9.45;8.43;;;;;;;31.87;35.69;101107.38;4960704;28;20141;-94
2022/09/07 09:29:55;;;;;;;10.35;8.70;;;;;;;32.53;35.01;101102.88;4969772;28;20021;-90
2022/09/07 09:32:34;;;;;;;10.07;9.07;;;;;;;32.92;35.74;101110.16;4979275;28;20027;-93
2022/09/07 09:35:01;;;;;;;9.68;8.60;;;;;;;32.98;35.05;101109.28;4978055;28;20444;-92
2022/09/07 09:37:38;;;;;;;8.27;7.28;;;;;;;33.55;34.67;101106.66;4975547;28;20042;-92
2022/09/07 09:40:06;;;;;;;8.32;7.53;;;;;;;33.88;32.39;101109.16;4978052;28;20154;-92
2022/09/07 09:42:34;;;;;;;9.05;8.00;;;;;;;34.02;32.49;101107.97;4977596;28;20047;-93
2022/09/07 09:45:15;;;;;;;7.60;6.60;;;;;;;33.88;32.62;101098.94;4978499;28;20030;-94
2022/09/07 09:47:48;;;;;;;8.40;6.25;;;;;;;33.87;32.17;101107.47;4973327;28;20031;-94
2022/09/07 09:50:19;;;;;;;;;;;;;;;34.86;34.36;101108.34;4978758;28;20046;-94
2022/09/07 09:52:45;;;;;;;8.10;7.20;;;;;;;34.86;29.39;101111.13;4977760;28;19917;-94
2022/09/07 09:55:25;;;;;;;6.85;5.88;;;;;;;35.06;30.69;101110.91;4978427;28;20027;-92
2022/09/07 09:57:57;;;;;;;8.65;7.43;;;;;;;35.04;29.92;101108.38;4968597;28;20089;-90
2022/09/07 10:00:24;;;;;;;9.63;8.63;;;;;;;34.64;29.69;101106.06;4958230;29;20058;-91
2022/09/07 10:03:04;;;;;;;7.82;5.82;;;;;;;34.79;31.58;101113.16;4957739;29;20160;-93
2022/09/07 10:05:38;;;;;;;5.18;4.55;;;;;;;35.20;30.47;101101.34;4957898;29;20039;-93
2022/09/07 10:08:17;;;;;;;5.97;4.50;;;;;;;35.97;28.54;101101.47;4969901;28;20520;-93
2022/09/07 10:11:14;;;;;;;6.45;5.00;;;;;;;36.21;28.08;101102.31;4976161;28;20393;-92
2022/09/07 10:13:54;;;;;;;5.40;4.57;;;;;;;36.20;28.80;101102.53;4976698;28;20098;-94
2022/09/07 10:16:39;;;;;;;5.53;4.47;;;;;;;35.68;28.69;101092.13;4975969;28;20038;-93
2022/09/07 10:19:04;;;;;;;5.95;4.28;;;;;;;36.36;27.55;101091.56;4974999;28;20123;-95
2022/09/07 10:21:30;;;;;;;6.57;3.90;;;;;;;36.59;26.97;101100.97;4977702;28;20030;-92
2022/09/07 10:24:14;;;;;;;5.85;4.03;;;;;;;37.56;27.49;101094.56;4979247;28;20394;-94
2022/09/07 10:26:42;;;;;;;5.53;4.00;;;;;;;37.90;24.98;101102.94;4959306;28;20472;-95
2022/09/07 10:29:13;;;;;;;5.88;3.50;;;;;;;37.35;25.01;101091.41;4972950;28;20035;-91
2022/09/07 10:31:55;;;;;;;5.17;3.50;;;;;;;35.06;28.23;101099.84;4979353;28;20022;-91
2022/09/07 10:34:37;;;;;;;5.68;3.40;;;;;;;33.35;31.51;101103.97;4978902;28;20394;-93
2022/09/07 10:37:09;;;;;;;6.35;2.95;;;;;;;34.83;29.06;101093.09;4978566;28;20046;-92
2022/09/07 10:39:40;;;;;;;5.28;2.60;;;;;;;36.00;26.56;101091.84;4977268;28;20026;-93
2022/09/07 10:42:08;;;;;;;5.18;2.78;;;;;;;36.42;26.42;101092.53;4978185;28;20022;-93
2022/09/07 10:44:58;;;;;;;5.80;3.33;;;;;;;37.21;25.56;101094.75;4978631;28;20179;-92
2022/09/07 10:47:36;;;;;;;6.05;3.65;;;;;;;36.38;27.16;101085.78;4976681;28;20093;-92
2022/09/07 10:50:08;;;;;;;4.47;2.70;;;;;;;37.64;25.37;101083.91;4977273;28;20086;-93
2022/09/07 10:53:00;;;;;;;5.43;2.35;;;;;;;37.29;26.09;101080.44;4977869;28;20031;-92
2022/09/07 10:55:37;;;;;;;4.03;1.92;;;;;;;34.96;28.08;101083.78;4981233;28;20039;-93
2022/09/07 10:58:21;;;;;;;4.35;2.25;;;;;;;32.53;30.50;101075.31;4976150;28;20039;-93
2022/09/07 11:00:58;;;;;;;6.60;3.58;;;;;;;31.16;33.17;101077.59;4982970;28;20031;-94
2022/09/07 11:03:44;;;;;;;4.53;2.05;;;;;;;30.62;34.13;101083.06;4978957;28;20037;-92
2022/09/07 11:06:24;;;;;;;3.95;1.80;;;;;;;29.89;34.72;101080.69;4977438;28;20034;-91
2022/09/07 11:09:08;;;;;;;5.70;1.80;;;;;;;29.01;35.93;101082.75;4959874;29;20027;-93
2022/09/07 11:11:40;;;;;;;4.32;2.05;;;;;;;30.55;33.35;101071.19;4957181;29;20089;-92
2022/09/07 11:14:13;;;;;;;6.90;3.00;;;;;;;32.93;30.14;101065.81;4960387;29;20034;-92
2022/09/07 11:16:48;;;;;;;5.07;2.13;;;;;;;33.01;29.22;101078.50;4977330;28;20510;-93
2022/09/07 11:19:21;;;;;;;5.80;2.05;;;;;;;31.60;31.78;101070.69;4991722;28;20007;-93
2022/09/07 11:21:52;;;;;;;10.73;6.13;;;;;;;30.38;33.55;101065.19;4990658;28;20061;-94
2022/09/07 11:24:36;;;;;;;4.65;1.55;;;;;;;29.29;34.95;101077.34;4991178;28;20055;-93
2022/09/07 11:27:10;;;;;;;4.32;2.15;;;;;;;28.63;36.61;101072.97;4992794;28;20078;-93
2022/09/07 11:29:44;;;;;;;5.70;2.03;;;;;;;31.10;34.44;101074.81;4993778;28;20019;-93